sensor_id;sensor_type;location;lat;lon;timestamp;P1;durP1;ratioP1;P2;durP2;ratioP2
27303;SDS011;14791;52.392;13.092;2023-04-06T00:01:22;2.40;;;2.30;;
27303;SDS011;14791;52.392;13.092;2023-04-06T00:03:51;1.63;;;1.63;;
27303;SDS011;14791;52.392;13.092;2023-04-06T00:06:20;2.17;;;2.10;;
27303;SDS011;14791;52.392;13.092;2023-04-06T00:08:49;2.43;;;2.33;;
27303;SDS011;14791;52.392;13.092;2023-04-06T00:11:18;2.63;;;2.53;;
27303;SDS011;14791;52.392;13.092;2023-04-06T00:13:47;2.67;;;2.57;;
27303;SDS011;14791;52.392;13.092;2023-04-06T00:16:16;2.30;;;2.20;;
27303;SDS011;14791;52.392;13.092;2023-04-06T00:18:45;2.20;;;2.00;;
27303;SDS011;14791;52.392;13.092;2023-04-06T00:21:14;2.40;;;2.30;;
27303;SDS011;14791;52.392;13.092;2023-04-06T00:23:43;2.33;;;2.13;;
27303;SDS011;14791;52.392;13.092;2023-04-06T00:26:12;2.13;;;2.03;;
27303;SDS011;14791;52.392;13.092;2023-04-06T00:28:42;2.40;;;2.30;;
27303;SDS011;14791;52.392;13.092;2023-04-06T00:31:11;2.10;;;2.10;;
27303;SDS011;14791;52.392;13.092;2023-04-06T00:33:40;2.13;;;2.03;;
27303;SDS011;14791;52.392;13.092;2023-04-06T00:36:09;1.53;;;1.53;;
27303;SDS011;14791;52.392;13.092;2023-04-06T00:38:39;1.57;;;1.57;;
27303;SDS011;14791;52.392;13.092;2023-04-06T00:41:08;2.63;;;2.53;;
27303;SDS011;14791;52.392;13.092;2023-04-06T00:43:37;1.80;;;1.70;;
27303;SDS011;14791;52.392;13.092;2023-04-06T00:46:06;2.40;;;2.30;;
27303;SDS011;14791;52.392;13.092;2023-04-06T00:48:35;1.97;;;1.87;;
27303;SDS011;14791;52.392;13.092;2023-04-06T00:51:05;2.60;;;2.50;;
27303;SDS011;14791;52.392;13.092;2023-04-06T00:53:34;2.57;;;2.47;;
27303;SDS011;14791;52.392;13.092;2023-04-06T00:56:04;2.00;;;1.97;;
27303;SDS011;14791;52.392;13.092;2023-04-06T00:58:37;2.40;;;2.30;;
27303;SDS011;14791;52.392;13.092;2023-04-06T01:01:07;2.47;;;2.37;;
27303;SDS011;14791;52.392;13.092;2023-04-06T01:03:36;2.43;;;2.37;;
27303;SDS011;14791;52.392;13.092;2023-04-06T01:06:06;2.60;;;2.50;;
27303;SDS011;14791;52.392;13.092;2023-04-06T01:08:37;2.57;;;2.47;;
27303;SDS011;14791;52.392;13.092;2023-04-06T01:11:17;2.37;;;2.17;;
27303;SDS011;14791;52.392;13.092;2023-04-06T01:13:48;2.40;;;2.20;;
27303;SDS011;14791;52.392;13.092;2023-04-06T01:16:18;2.23;;;2.13;;
27303;SDS011;14791;52.392;13.092;2023-04-06T01:18:49;2.20;;;2.10;;
27303;SDS011;14791;52.392;13.092;2023-04-06T01:21:22;2.30;;;2.20;;
27303;SDS011;14791;52.392;13.092;2023-04-06T01:23:53;2.63;;;2.50;;
27303;SDS011;14791;52.392;13.092;2023-04-06T01:26:24;2.77;;;2.57;;
27303;SDS011;14791;52.392;13.092;2023-04-06T01:28:54;2.40;;;2.30;;
27303;SDS011;14791;52.392;13.092;2023-04-06T01:31:25;2.53;;;2.43;;
27303;SDS011;14791;52.392;13.092;2023-04-06T01:33:54;2.00;;;1.90;;
27303;SDS011;14791;52.392;13.092;2023-04-06T01:36:25;3.10;;;2.37;;
27303;SDS011;14791;52.392;13.092;2023-04-06T01:38:55;2.60;;;2.50;;
27303;SDS011;14791;52.392;13.092;2023-04-06T01:41:26;1.83;;;1.83;;
27303;SDS011;14791;52.392;13.092;2023-04-06T01:43:55;2.73;;;1.87;;
27303;SDS011;14791;52.392;13.092;2023-04-06T01:46:26;2.57;;;2.47;;
27303;SDS011;14791;52.392;13.092;2023-04-06T01:48:55;2.20;;;2.10;;
27303;SDS011;14791;52.392;13.092;2023-04-06T01:51:28;2.77;;;2.67;;
27303;SDS011;14791;52.392;13.092;2023-04-06T01:54:00;2.27;;;2.17;;
27303;SDS011;14791;52.392;13.092;2023-04-06T01:56:36;2.70;;;2.60;;
27303;SDS011;14791;52.392;13.092;2023-04-06T01:59:07;2.47;;;2.37;;
27303;SDS011;14791;52.392;13.092;2023-04-06T02:01:38;2.23;;;2.13;;
27303;SDS011;14791;52.392;13.092;2023-04-06T02:04:07;2.80;;;2.70;;
27303;SDS011;14791;52.392;13.092;2023-04-06T02:06:36;2.33;;;2.23;;
27303;SDS011;14791;52.392;13.092;2023-04-06T02:09:06;2.50;;;2.30;;
27303;SDS011;14791;52.392;13.092;2023-04-06T02:11:36;2.37;;;2.27;;
27303;SDS011;14791;52.392;13.092;2023-04-06T02:14:05;2.50;;;2.40;;
27303;SDS011;14791;52.392;13.092;2023-04-06T02:16:36;2.60;;;2.50;;
27303;SDS011;14791;52.392;13.092;2023-04-06T02:19:05;2.50;;;2.40;;
27303;SDS011;14791;52.392;13.092;2023-04-06T02:21:34;2.67;;;2.57;;
27303;SDS011;14791;52.392;13.092;2023-04-06T02:24:04;2.30;;;2.20;;
27303;SDS011;14791;52.392;13.092;2023-04-06T02:26:33;2.07;;;1.97;;
27303;SDS011;14791;52.392;13.092;2023-04-06T02:29:02;2.67;;;2.47;;
27303;SDS011;14791;52.392;13.092;2023-04-06T02:31:33;2.83;;;2.73;;
27303;SDS011;14791;52.392;13.092;2023-04-06T02:34:02;2.80;;;2.60;;
27303;SDS011;14791;52.392;13.092;2023-04-06T02:36:32;3.00;;;2.80;;
27303;SDS011;14791;52.392;13.092;2023-04-06T02:39:01;2.77;;;2.57;;
27303;SDS011;14791;52.392;13.092;2023-04-06T02:41:31;2.60;;;2.50;;
27303;SDS011;14791;52.392;13.092;2023-04-06T02:44:00;2.63;;;2.53;;
27303;SDS011;14791;52.392;13.092;2023-04-06T02:46:31;2.50;;;2.40;;
27303;SDS011;14791;52.392;13.092;2023-04-06T02:49:00;2.60;;;2.50;;
27303;SDS011;14791;52.392;13.092;2023-04-06T02:51:30;2.70;;;2.50;;
27303;SDS011;14791;52.392;13.092;2023-04-06T02:54:02;2.50;;;2.40;;
27303;SDS011;14791;52.392;13.092;2023-04-06T02:56:31;2.10;;;2.00;;
27303;SDS011;14791;52.392;13.092;2023-04-06T02:59:00;2.30;;;2.10;;
27303;SDS011;14791;52.392;13.092;2023-04-06T03:01:30;2.23;;;2.20;;
27303;SDS011;14791;52.392;13.092;2023-04-06T03:04:01;2.27;;;2.17;;
27303;SDS011;14791;52.392;13.092;2023-04-06T03:06:30;2.23;;;2.13;;
27303;SDS011;14791;52.392;13.092;2023-04-06T03:09:01;2.20;;;2.10;;
27303;SDS011;14791;52.392;13.092;2023-04-06T03:11:31;2.07;;;1.97;;
27303;SDS011;14791;52.392;13.092;2023-04-06T03:14:00;1.73;;;1.73;;
27303;SDS011;14791;52.392;13.092;2023-04-06T03:16:29;2.50;;;2.30;;
27303;SDS011;14791;52.392;13.092;2023-04-06T03:18:59;2.67;;;2.57;;
27303;SDS011;14791;52.392;13.092;2023-04-06T03:21:30;2.37;;;2.27;;
27303;SDS011;14791;52.392;13.092;2023-04-06T03:24:00;2.60;;;2.50;;
27303;SDS011;14791;52.392;13.092;2023-04-06T03:26:29;2.87;;;2.37;;
27303;SDS011;14791;52.392;13.092;2023-04-06T03:28:59;2.33;;;2.07;;
27303;SDS011;14791;52.392;13.092;2023-04-06T03:31:30;2.97;;;2.80;;
27303;SDS011;14791;52.392;13.092;2023-04-06T03:34:01;3.03;;;2.50;;
27303;SDS011;14791;52.392;13.092;2023-04-06T03:36:31;2.50;;;2.40;;
27303;SDS011;14791;52.392;13.092;2023-04-06T03:39:03;2.57;;;2.30;;
27303;SDS011;14791;52.392;13.092;2023-04-06T03:41:34;2.60;;;2.50;;
27303;SDS011;14791;52.392;13.092;2023-04-06T03:44:11;2.57;;;2.47;;
27303;SDS011;14791;52.392;13.092;2023-04-06T03:46:40;2.83;;;2.60;;
27303;SDS011;14791;52.392;13.092;2023-04-06T03:49:09;2.43;;;2.33;;
27303;SDS011;14791;52.392;13.092;2023-04-06T03:51:40;2.33;;;2.23;;
27303;SDS011;14791;52.392;13.092;2023-04-06T03:54:09;3.77;;;2.50;;
27303;SDS011;14791;52.392;13.092;2023-04-06T03:56:38;2.50;;;2.40;;
27303;SDS011;14791;52.392;13.092;2023-04-06T03:59:07;2.73;;;2.63;;
27303;SDS011;14791;52.392;13.092;2023-04-06T04:01:36;4.40;;;2.50;;
27303;SDS011;14791;52.392;13.092;2023-04-06T04:04:06;2.60;;;2.50;;
27303;SDS011;14791;52.392;13.092;2023-04-06T04:06:35;2.70;;;2.50;;
27303;SDS011;14791;52.392;13.092;2023-04-06T04:09:05;2.40;;;2.30;;
27303;SDS011;14791;52.392;13.092;2023-04-06T04:11:34;2.53;;;2.43;;
27303;SDS011;14791;52.392;13.092;2023-04-06T04:14:04;2.37;;;2.10;;
27303;SDS011;14791;52.392;13.092;2023-04-06T04:16:33;2.53;;;2.43;;
27303;SDS011;14791;52.392;13.092;2023-04-06T04:19:02;2.60;;;2.50;;
27303;SDS011;14791;52.392;13.092;2023-04-06T04:21:31;2.47;;;2.37;;
27303;SDS011;14791;52.392;13.092;2023-04-06T04:24:02;2.80;;;2.70;;
27303;SDS011;14791;52.392;13.092;2023-04-06T04:26:33;2.63;;;2.53;;
27303;SDS011;14791;52.392;13.092;2023-04-06T04:29:02;3.40;;;3.20;;
27303;SDS011;14791;52.392;13.092;2023-04-06T04:31:31;2.50;;;2.30;;
27303;SDS011;14791;52.392;13.092;2023-04-06T04:34:02;4.37;;;2.57;;
27303;SDS011;14791;52.392;13.092;2023-04-06T04:36:32;2.53;;;2.33;;
27303;SDS011;14791;52.392;13.092;2023-04-06T04:39:03;2.53;;;2.43;;
27303;SDS011;14791;52.392;13.092;2023-04-06T04:41:34;2.87;;;2.77;;
27303;SDS011;14791;52.392;13.092;2023-04-06T04:44:05;2.50;;;2.40;;
27303;SDS011;14791;52.392;13.092;2023-04-06T04:46:34;2.57;;;2.47;;
27303;SDS011;14791;52.392;13.092;2023-04-06T04:49:04;2.50;;;2.40;;
27303;SDS011;14791;52.392;13.092;2023-04-06T04:51:33;2.93;;;2.83;;
27303;SDS011;14791;52.392;13.092;2023-04-06T04:54:05;3.27;;;3.07;;
27303;SDS011;14791;52.392;13.092;2023-04-06T04:56:34;2.70;;;2.60;;
27303;SDS011;14791;52.392;13.092;2023-04-06T04:59:17;4.00;;;3.83;;
27303;SDS011;14791;52.392;13.092;2023-04-06T05:01:47;4.13;;;3.93;;
27303;SDS011;14791;52.392;13.092;2023-04-06T05:04:17;4.20;;;4.00;;
27303;SDS011;14791;52.392;13.092;2023-04-06T05:06:47;3.63;;;3.53;;
27303;SDS011;14791;52.392;13.092;2023-04-06T05:09:18;4.63;;;4.30;;
27303;SDS011;14791;52.392;13.092;2023-04-06T05:11:47;6.43;;;6.03;;
27303;SDS011;14791;52.392;13.092;2023-04-06T05:14:16;6.77;;;6.23;;
27303;SDS011;14791;52.392;13.092;2023-04-06T05:16:45;6.63;;;6.03;;
27303;SDS011;14791;52.392;13.092;2023-04-06T05:19:14;4.60;;;4.40;;
27303;SDS011;14791;52.392;13.092;2023-04-06T05:21:44;4.43;;;4.23;;
27303;SDS011;14791;52.392;13.092;2023-04-06T05:24:13;3.60;;;3.43;;
27303;SDS011;14791;52.392;13.092;2023-04-06T05:26:43;3.77;;;3.47;;
27303;SDS011;14791;52.392;13.092;2023-04-06T05:29:15;3.90;;;3.60;;
27303;SDS011;14791;52.392;13.092;2023-04-06T05:31:47;3.10;;;3.00;;
27303;SDS011;14791;52.392;13.092;2023-04-06T05:34:16;3.47;;;3.27;;
27303;SDS011;14791;52.392;13.092;2023-04-06T05:36:47;3.23;;;3.03;;
27303;SDS011;14791;52.392;13.092;2023-04-06T05:39:18;2.97;;;2.87;;
27303;SDS011;14791;52.392;13.092;2023-04-06T05:41:51;2.90;;;2.63;;
27303;SDS011;14791;52.392;13.092;2023-04-06T05:44:31;3.10;;;3.00;;
27303;SDS011;14791;52.392;13.092;2023-04-06T05:47:05;4.60;;;4.20;;
27303;SDS011;14791;52.392;13.092;2023-04-06T05:49:35;4.90;;;4.33;;
27303;SDS011;14791;52.392;13.092;2023-04-06T05:52:06;3.50;;;3.20;;
27303;SDS011;14791;52.392;13.092;2023-04-06T05:54:37;3.20;;;2.90;;
27303;SDS011;14791;52.392;13.092;2023-04-06T05:57:06;4.03;;;3.00;;
27303;SDS011;14791;52.392;13.092;2023-04-06T05:59:35;3.20;;;2.90;;
27303;SDS011;14791;52.392;13.092;2023-04-06T06:02:05;3.53;;;3.33;;
27303;SDS011;14791;52.392;13.092;2023-04-06T06:04:36;3.00;;;2.70;;
27303;SDS011;14791;52.392;13.092;2023-04-06T06:07:05;3.97;;;3.67;;
27303;SDS011;14791;52.392;13.092;2023-04-06T06:09:38;3.57;;;3.47;;
27303;SDS011;14791;52.392;13.092;2023-04-06T06:12:21;3.60;;;3.40;;
27303;SDS011;14791;52.392;13.092;2023-04-06T06:14:50;3.23;;;3.13;;
27303;SDS011;14791;52.392;13.092;2023-04-06T06:17:20;3.03;;;2.73;;
27303;SDS011;14791;52.392;13.092;2023-04-06T06:19:50;3.13;;;2.93;;
27303;SDS011;14791;52.392;13.092;2023-04-06T06:22:19;3.27;;;3.17;;
27303;SDS011;14791;52.392;13.092;2023-04-06T06:24:48;3.63;;;3.33;;
27303;SDS011;14791;52.392;13.092;2023-04-06T06:27:19;2.63;;;2.43;;
27303;SDS011;14791;52.392;13.092;2023-04-06T06:29:48;2.70;;;2.60;;
27303;SDS011;14791;52.392;13.092;2023-04-06T06:32:17;3.63;;;3.43;;
27303;SDS011;14791;52.392;13.092;2023-04-06T06:34:49;3.00;;;2.77;;
27303;SDS011;14791;52.392;13.092;2023-04-06T06:37:18;3.03;;;2.93;;
27303;SDS011;14791;52.392;13.092;2023-04-06T06:39:48;3.13;;;3.00;;
27303;SDS011;14791;52.392;13.092;2023-04-06T06:42:18;2.50;;;2.40;;
27303;SDS011;14791;52.392;13.092;2023-04-06T06:44:49;2.33;;;2.23;;
27303;SDS011;14791;52.392;13.092;2023-04-06T06:47:19;3.60;;;3.40;;
27303;SDS011;14791;52.392;13.092;2023-04-06T06:49:48;2.87;;;2.70;;
27303;SDS011;14791;52.392;13.092;2023-04-06T06:52:17;3.07;;;2.97;;
27303;SDS011;14791;52.392;13.092;2023-04-06T06:54:46;2.93;;;2.83;;
27303;SDS011;14791;52.392;13.092;2023-04-06T06:57:15;3.43;;;3.33;;
27303;SDS011;14791;52.392;13.092;2023-04-06T06:59:44;3.00;;;2.80;;
27303;SDS011;14791;52.392;13.092;2023-04-06T07:02:14;2.80;;;2.70;;
27303;SDS011;14791;52.392;13.092;2023-04-06T07:04:43;3.27;;;2.93;;
27303;SDS011;14791;52.392;13.092;2023-04-06T07:07:13;2.80;;;2.70;;
27303;SDS011;14791;52.392;13.092;2023-04-06T07:09:43;3.27;;;3.07;;
27303;SDS011;14791;52.392;13.092;2023-04-06T07:12:12;2.93;;;2.83;;
27303;SDS011;14791;52.392;13.092;2023-04-06T07:14:43;3.20;;;3.10;;
27303;SDS011;14791;52.392;13.092;2023-04-06T07:17:13;3.40;;;3.30;;
27303;SDS011;14791;52.392;13.092;2023-04-06T07:19:42;3.23;;;2.97;;
27303;SDS011;14791;52.392;13.092;2023-04-06T07:22:12;2.87;;;2.77;;
27303;SDS011;14791;52.392;13.092;2023-04-06T07:24:41;3.43;;;3.23;;
27303;SDS011;14791;52.392;13.092;2023-04-06T07:27:10;2.80;;;2.70;;
27303;SDS011;14791;52.392;13.092;2023-04-06T07:29:39;3.20;;;3.10;;
27303;SDS011;14791;52.392;13.092;2023-04-06T07:32:09;3.10;;;3.00;;
27303;SDS011;14791;52.392;13.092;2023-04-06T07:34:39;3.17;;;3.07;;
27303;SDS011;14791;52.392;13.092;2023-04-06T07:37:08;2.50;;;2.40;;
27303;SDS011;14791;52.392;13.092;2023-04-06T07:39:37;3.27;;;3.07;;
27303;SDS011;14791;52.392;13.092;2023-04-06T07:42:07;2.33;;;2.23;;
27303;SDS011;14791;52.392;13.092;2023-04-06T07:44:37;3.00;;;2.90;;
27303;SDS011;14791;52.392;13.092;2023-04-06T07:47:06;2.37;;;2.33;;
27303;SDS011;14791;52.392;13.092;2023-04-06T07:49:35;2.10;;;2.00;;
27303;SDS011;14791;52.392;13.092;2023-04-06T07:52:05;2.87;;;2.70;;
27303;SDS011;14791;52.392;13.092;2023-04-06T07:54:34;3.03;;;2.93;;
27303;SDS011;14791;52.392;13.092;2023-04-06T07:57:03;3.30;;;3.20;;
27303;SDS011;14791;52.392;13.092;2023-04-06T07:59:32;3.37;;;3.20;;
27303;SDS011;14791;52.392;13.092;2023-04-06T08:02:01;3.20;;;3.00;;
27303;SDS011;14791;52.392;13.092;2023-04-06T08:04:31;3.40;;;3.20;;
27303;SDS011;14791;52.392;13.092;2023-04-06T08:07:00;3.50;;;3.33;;
27303;SDS011;14791;52.392;13.092;2023-04-06T08:09:29;3.17;;;3.07;;
27303;SDS011;14791;52.392;13.092;2023-04-06T08:11:58;2.53;;;2.43;;
27303;SDS011;14791;52.392;13.092;2023-04-06T08:14:27;2.67;;;2.57;;
27303;SDS011;14791;52.392;13.092;2023-04-06T08:16:56;2.77;;;2.67;;
27303;SDS011;14791;52.392;13.092;2023-04-06T08:19:27;2.33;;;2.23;;
27303;SDS011;14791;52.392;13.092;2023-04-06T08:21:56;2.80;;;2.70;;
27303;SDS011;14791;52.392;13.092;2023-04-06T08:24:25;3.73;;;3.53;;
27303;SDS011;14791;52.392;13.092;2023-04-06T08:26:54;2.80;;;2.70;;
27303;SDS011;14791;52.392;13.092;2023-04-06T08:29:23;3.00;;;2.90;;
27303;SDS011;14791;52.392;13.092;2023-04-06T08:31:52;3.63;;;3.43;;
27303;SDS011;14791;52.392;13.092;2023-04-06T08:34:21;3.40;;;3.20;;
27303;SDS011;14791;52.392;13.092;2023-04-06T08:36:51;2.87;;;2.77;;
27303;SDS011;14791;52.392;13.092;2023-04-06T08:39:20;2.80;;;2.70;;
27303;SDS011;14791;52.392;13.092;2023-04-06T08:41:51;2.30;;;2.23;;
27303;SDS011;14791;52.392;13.092;2023-04-06T08:44:22;2.50;;;2.30;;
27303;SDS011;14791;52.392;13.092;2023-04-06T08:46:52;2.40;;;2.20;;
27303;SDS011;14791;52.392;13.092;2023-04-06T08:49:21;1.60;;;1.60;;
27303;SDS011;14791;52.392;13.092;2023-04-06T08:51:51;1.50;;;1.50;;
27303;SDS011;14791;52.392;13.092;2023-04-06T08:54:20;1.63;;;1.53;;
27303;SDS011;14791;52.392;13.092;2023-04-06T08:56:49;1.67;;;1.57;;
27303;SDS011;14791;52.392;13.092;2023-04-06T08:59:18;1.43;;;1.43;;
27303;SDS011;14791;52.392;13.092;2023-04-06T09:01:47;1.70;;;1.60;;
27303;SDS011;14791;52.392;13.092;2023-04-06T09:04:16;1.50;;;1.50;;
27303;SDS011;14791;52.392;13.092;2023-04-06T09:06:46;1.70;;;1.60;;
27303;SDS011;14791;52.392;13.092;2023-04-06T09:09:16;1.37;;;1.37;;
27303;SDS011;14791;52.392;13.092;2023-04-06T09:11:47;1.57;;;1.40;;
27303;SDS011;14791;52.392;13.092;2023-04-06T09:14:32;1.37;;;1.37;;
27303;SDS011;14791;52.392;13.092;2023-04-06T09:17:07;13.67;;;2.90;;
27303;SDS011;14791;52.392;13.092;2023-04-06T09:19:46;1.63;;;1.63;;
27303;SDS011;14791;52.392;13.092;2023-04-06T09:22:15;1.67;;;1.67;;
27303;SDS011;14791;52.392;13.092;2023-04-06T09:24:46;1.40;;;1.40;;
27303;SDS011;14791;52.392;13.092;2023-04-06T09:27:37;1.20;;;1.20;;
27303;SDS011;14791;52.392;13.092;2023-04-06T09:30:04;1.33;;;1.30;;
27303;SDS011;14791;52.392;13.092;2023-04-06T09:32:49;1.40;;;1.40;;
27303;SDS011;14791;52.392;13.092;2023-04-06T09:35:16;1.37;;;1.33;;
27303;SDS011;14791;52.392;13.092;2023-04-06T09:37:50;1.50;;;1.50;;
27303;SDS011;14791;52.392;13.092;2023-04-06T09:40:19;1.77;;;1.67;;
27303;SDS011;14791;52.392;13.092;2023-04-06T09:42:49;2.07;;;1.90;;
27303;SDS011;14791;52.392;13.092;2023-04-06T09:45:20;2.30;;;2.20;;
27303;SDS011;14791;52.392;13.092;2023-04-06T09:47:49;1.73;;;1.73;;
27303;SDS011;14791;52.392;13.092;2023-04-06T09:50:21;2.10;;;2.10;;
27303;SDS011;14791;52.392;13.092;2023-04-06T09:52:53;1.83;;;1.83;;
27303;SDS011;14791;52.392;13.092;2023-04-06T09:55:31;1.70;;;1.70;;
27303;SDS011;14791;52.392;13.092;2023-04-06T10:00:35;2.37;;;1.60;;
27303;SDS011;14791;52.392;13.092;2023-04-06T10:03:12;1.50;;;1.50;;
27303;SDS011;14791;52.392;13.092;2023-04-06T10:05:53;1.87;;;1.87;;
27303;SDS011;14791;52.392;13.092;2023-04-06T10:08:26;1.70;;;1.70;;
27303;SDS011;14791;52.392;13.092;2023-04-06T10:10:56;1.83;;;1.73;;
27303;SDS011;14791;52.392;13.092;2023-04-06T10:13:27;1.90;;;1.80;;
27303;SDS011;14791;52.392;13.092;2023-04-06T10:15:56;2.00;;;1.90;;
27303;SDS011;14791;52.392;13.092;2023-04-06T10:18:28;1.83;;;1.83;;
27303;SDS011;14791;52.392;13.092;2023-04-06T10:21:01;1.77;;;1.67;;
27303;SDS011;14791;52.392;13.092;2023-04-06T10:23:46;1.60;;;1.60;;
27303;SDS011;14791;52.392;13.092;2023-04-06T10:26:28;2.00;;;2.00;;
27303;SDS011;14791;52.392;13.092;2023-04-06T10:29:02;2.00;;;1.90;;
27303;SDS011;14791;52.392;13.092;2023-04-06T10:31:30;2.00;;;1.90;;
27303;SDS011;14791;52.392;13.092;2023-04-06T10:34:00;2.00;;;1.90;;
27303;SDS011;14791;52.392;13.092;2023-04-06T10:36:33;1.87;;;1.87;;
27303;SDS011;14791;52.392;13.092;2023-04-06T10:39:03;2.53;;;2.33;;
27303;SDS011;14791;52.392;13.092;2023-04-06T10:41:43;1.60;;;1.60;;
27303;SDS011;14791;52.392;13.092;2023-04-06T10:44:21;2.13;;;2.03;;
27303;SDS011;14791;52.392;13.092;2023-04-06T10:46:58;1.73;;;1.73;;
27303;SDS011;14791;52.392;13.092;2023-04-06T10:49:30;1.73;;;1.73;;
27303;SDS011;14791;52.392;13.092;2023-04-06T10:51:59;1.73;;;1.73;;
27303;SDS011;14791;52.392;13.092;2023-04-06T10:54:28;2.10;;;2.10;;
27303;SDS011;14791;52.392;13.092;2023-04-06T10:56:59;1.93;;;1.83;;
27303;SDS011;14791;52.392;13.092;2023-04-06T10:59:29;1.83;;;1.73;;
27303;SDS011;14791;52.392;13.092;2023-04-06T11:01:58;1.67;;;1.57;;
27303;SDS011;14791;52.392;13.092;2023-04-06T11:04:27;1.47;;;1.47;;
27303;SDS011;14791;52.392;13.092;2023-04-06T11:06:57;1.30;;;1.30;;
27303;SDS011;14791;52.392;13.092;2023-04-06T11:09:31;1.50;;;1.50;;
27303;SDS011;14791;52.392;13.092;2023-04-06T11:11:59;1.45;;;1.45;;
27303;SDS011;14791;52.392;13.092;2023-04-06T11:14:28;2.47;;;2.37;;
27303;SDS011;14791;52.392;13.092;2023-04-06T11:16:57;2.03;;;1.93;;
27303;SDS011;14791;52.392;13.092;2023-04-06T11:19:26;1.55;;;1.55;;
27303;SDS011;14791;52.392;13.092;2023-04-06T11:21:55;1.60;;;1.50;;
27303;SDS011;14791;52.392;13.092;2023-04-06T11:24:24;1.95;;;1.85;;
27303;SDS011;14791;52.392;13.092;2023-04-06T11:26:56;1.60;;;1.60;;
27303;SDS011;14791;52.392;13.092;2023-04-06T11:29:28;1.90;;;1.80;;
27303;SDS011;14791;52.392;13.092;2023-04-06T11:31:59;1.65;;;1.65;;
27303;SDS011;14791;52.392;13.092;2023-04-06T11:34:30;1.57;;;1.57;;
27303;SDS011;14791;52.392;13.092;2023-04-06T11:37:08;1.30;;;1.30;;
27303;SDS011;14791;52.392;13.092;2023-04-06T11:39:40;1.70;;;1.70;;
27303;SDS011;14791;52.392;13.092;2023-04-06T11:42:10;1.50;;;1.50;;
27303;SDS011;14791;52.392;13.092;2023-04-06T11:44:42;1.27;;;1.27;;
27303;SDS011;14791;52.392;13.092;2023-04-06T11:47:13;1.33;;;1.33;;
27303;SDS011;14791;52.392;13.092;2023-04-06T11:49:42;1.70;;;1.70;;
27303;SDS011;14791;52.392;13.092;2023-04-06T11:52:18;1.40;;;1.40;;
27303;SDS011;14791;52.392;13.092;2023-04-06T11:54:49;1.52;;;1.52;;
27303;SDS011;14791;52.392;13.092;2023-04-06T11:57:20;1.07;;;1.07;;
27303;SDS011;14791;52.392;13.092;2023-04-06T11:59:52;1.70;;;1.70;;
27303;SDS011;14791;52.392;13.092;2023-04-06T12:02:21;1.50;;;1.50;;
27303;SDS011;14791;52.392;13.092;2023-04-06T12:04:50;1.47;;;1.47;;
27303;SDS011;14791;52.392;13.092;2023-04-06T12:07:19;1.77;;;1.77;;
27303;SDS011;14791;52.392;13.092;2023-04-06T12:09:48;1.90;;;1.80;;
27303;SDS011;14791;52.392;13.092;2023-04-06T12:12:17;1.98;;;1.98;;
27303;SDS011;14791;52.392;13.092;2023-04-06T12:14:47;2.30;;;2.20;;
27303;SDS011;14791;52.392;13.092;2023-04-06T12:17:16;2.08;;;2.00;;
27303;SDS011;14791;52.392;13.092;2023-04-06T12:19:46;1.77;;;1.70;;
27303;SDS011;14791;52.392;13.092;2023-04-06T12:22:18;1.62;;;1.62;;
27303;SDS011;14791;52.392;13.092;2023-04-06T12:24:46;1.72;;;1.72;;
27303;SDS011;14791;52.392;13.092;2023-04-06T12:27:15;1.60;;;1.60;;
27303;SDS011;14791;52.392;13.092;2023-04-06T12:29:44;1.42;;;1.42;;
27303;SDS011;14791;52.392;13.092;2023-04-06T12:32:13;2.15;;;2.08;;
27303;SDS011;14791;52.392;13.092;2023-04-06T12:34:42;1.65;;;1.60;;
27303;SDS011;14791;52.392;13.092;2023-04-06T12:37:11;1.77;;;1.67;;
27303;SDS011;14791;52.392;13.092;2023-04-06T12:39:40;1.70;;;1.70;;
27303;SDS011;14791;52.392;13.092;2023-04-06T12:42:11;1.47;;;1.47;;
27303;SDS011;14791;52.392;13.092;2023-04-06T12:44:40;1.60;;;1.60;;
27303;SDS011;14791;52.392;13.092;2023-04-06T12:47:10;1.65;;;1.65;;
27303;SDS011;14791;52.392;13.092;2023-04-06T12:49:39;1.72;;;1.72;;
27303;SDS011;14791;52.392;13.092;2023-04-06T12:52:08;1.70;;;1.60;;
27303;SDS011;14791;52.392;13.092;2023-04-06T12:54:37;1.40;;;1.40;;
27303;SDS011;14791;52.392;13.092;2023-04-06T12:57:06;1.67;;;1.62;;
27303;SDS011;14791;52.392;13.092;2023-04-06T12:59:35;1.42;;;1.42;;
27303;SDS011;14791;52.392;13.092;2023-04-06T13:02:04;1.55;;;1.52;;
27303;SDS011;14791;52.392;13.092;2023-04-06T13:04:33;1.32;;;1.32;;
27303;SDS011;14791;52.392;13.092;2023-04-06T13:07:02;1.47;;;1.47;;
27303;SDS011;14791;52.392;13.092;2023-04-06T13:09:31;1.57;;;1.57;;
27303;SDS011;14791;52.392;13.092;2023-04-06T13:12:01;1.80;;;1.70;;
27303;SDS011;14791;52.392;13.092;2023-04-06T13:14:30;2.10;;;2.00;;
27303;SDS011;14791;52.392;13.092;2023-04-06T13:16:59;1.72;;;1.62;;
27303;SDS011;14791;52.392;13.092;2023-04-06T13:19:28;1.77;;;1.77;;
27303;SDS011;14791;52.392;13.092;2023-04-06T13:21:58;1.70;;;1.70;;
27303;SDS011;14791;52.392;13.092;2023-04-06T13:24:27;1.80;;;1.80;;
27303;SDS011;14791;52.392;13.092;2023-04-06T13:26:57;1.32;;;1.32;;
27303;SDS011;14791;52.392;13.092;2023-04-06T13:29:27;1.95;;;1.92;;
27303;SDS011;14791;52.392;13.092;2023-04-06T13:31:56;1.85;;;1.80;;
27303;SDS011;14791;52.392;13.092;2023-04-06T13:34:25;1.92;;;1.82;;
27303;SDS011;14791;52.392;13.092;2023-04-06T13:36:54;1.72;;;1.72;;
27303;SDS011;14791;52.392;13.092;2023-04-06T13:39:23;1.60;;;1.60;;
27303;SDS011;14791;52.392;13.092;2023-04-06T13:41:53;1.80;;;1.80;;
27303;SDS011;14791;52.392;13.092;2023-04-06T13:44:23;1.57;;;1.50;;
27303;SDS011;14791;52.392;13.092;2023-04-06T13:46:53;1.50;;;1.40;;
27303;SDS011;14791;52.392;13.092;2023-04-06T13:49:22;1.55;;;1.55;;
27303;SDS011;14791;52.392;13.092;2023-04-06T13:51:51;1.75;;;1.65;;
27303;SDS011;14791;52.392;13.092;2023-04-06T13:54:20;1.67;;;1.67;;
27303;SDS011;14791;52.392;13.092;2023-04-06T13:56:49;1.40;;;1.40;;
27303;SDS011;14791;52.392;13.092;2023-04-06T13:59:19;1.82;;;1.55;;
27303;SDS011;14791;52.392;13.092;2023-04-06T14:01:48;1.70;;;1.70;;
27303;SDS011;14791;52.392;13.092;2023-04-06T14:04:17;1.75;;;1.75;;
27303;SDS011;14791;52.392;13.092;2023-04-06T14:06:46;1.85;;;1.75;;
27303;SDS011;14791;52.392;13.092;2023-04-06T14:09:14;2.00;;;2.00;;
27303;SDS011;14791;52.392;13.092;2023-04-06T14:11:43;2.25;;;2.15;;
27303;SDS011;14791;52.392;13.092;2023-04-06T14:14:12;1.80;;;1.80;;
27303;SDS011;14791;52.392;13.092;2023-04-06T14:16:41;1.82;;;1.82;;
27303;SDS011;14791;52.392;13.092;2023-04-06T14:19:11;2.27;;;2.27;;
27303;SDS011;14791;52.392;13.092;2023-04-06T14:21:42;1.60;;;1.60;;
27303;SDS011;14791;52.392;13.092;2023-04-06T14:24:13;1.55;;;1.55;;
27303;SDS011;14791;52.392;13.092;2023-04-06T14:26:44;1.92;;;1.82;;
27303;SDS011;14791;52.392;13.092;2023-04-06T14:29:13;1.65;;;1.65;;
27303;SDS011;14791;52.392;13.092;2023-04-06T14:31:42;1.80;;;1.80;;
27303;SDS011;14791;52.392;13.092;2023-04-06T14:34:15;1.52;;;1.52;;
27303;SDS011;14791;52.392;13.092;2023-04-06T14:36:44;1.80;;;1.80;;
27303;SDS011;14791;52.392;13.092;2023-04-06T14:39:13;1.50;;;1.50;;
27303;SDS011;14791;52.392;13.092;2023-04-06T14:41:42;2.30;;;2.20;;
27303;SDS011;14791;52.392;13.092;2023-04-06T14:44:10;2.98;;;2.87;;
27303;SDS011;14791;52.392;13.092;2023-04-06T14:46:40;2.17;;;2.08;;
27303;SDS011;14791;52.392;13.092;2023-04-06T14:49:09;1.82;;;1.82;;
27303;SDS011;14791;52.392;13.092;2023-04-06T14:51:38;1.87;;;1.87;;
27303;SDS011;14791;52.392;13.092;2023-04-06T14:54:07;2.00;;;2.00;;